createdAt,value
2023-05-19T00:00:31.470Z,0.00
2023-05-19T00:01:31.319Z,0.00
2023-05-19T00:02:31.375Z,0.00
2023-05-19T00:03:31.364Z,0.00
2023-05-19T00:04:31.320Z,0.00
2023-05-19T00:05:31.334Z,0.00
2023-05-19T00:06:31.268Z,0.00
2023-05-19T00:07:31.286Z,0.00
2023-05-19T00:08:31.247Z,0.00
2023-05-19T00:09:31.258Z,0.00
2023-05-19T00:10:31.459Z,0.00
2023-05-19T00:11:31.217Z,0.00
2023-05-19T00:12:31.188Z,0.00
2023-05-19T00:13:31.203Z,0.00
2023-05-19T00:14:31.177Z,0.00
2023-05-19T00:15:31.328Z,0.00
2023-05-19T00:16:31.281Z,0.00
2023-05-19T00:17:31.170Z,0.00
2023-05-19T00:18:31.147Z,0.00
2023-05-19T00:19:31.134Z,0.00
2023-05-19T00:20:31.297Z,0.00
2023-05-19T00:21:31.097Z,0.00
2023-05-19T00:22:31.082Z,0.00
2023-05-19T00:23:31.090Z,0.00
2023-05-19T00:24:31.080Z,0.00
2023-05-19T00:25:31.026Z,0.00
2023-05-19T00:26:31.021Z,0.00
2023-05-19T00:27:31.037Z,0.00
2023-05-19T00:28:31.040Z,0.00
2023-05-19T00:29:31.013Z,0.00
2023-05-19T00:30:31.325Z,0.00
2023-05-19T00:31:30.992Z,0.00
2023-05-19T00:32:31.009Z,0.00
2023-05-19T00:33:30.954Z,0.00
2023-05-19T00:34:30.956Z,0.00
2023-05-19T00:35:30.952Z,0.00
2023-05-19T00:36:30.953Z,0.00
2023-05-19T00:37:30.904Z,0.00
2023-05-19T00:38:30.905Z,0.00
2023-05-19T00:39:30.897Z,0.00
2023-05-19T00:40:31.237Z,0.00
2023-05-19T00:41:30.863Z,0.00
2023-05-19T00:42:30.853Z,0.00
2023-05-19T00:43:30.829Z,0.00
2023-05-19T00:44:30.837Z,0.00
2023-05-19T00:45:30.805Z,0.00
2023-05-19T00:46:30.907Z,0.00
2023-05-19T00:47:30.848Z,0.00
2023-05-19T00:48:30.770Z,0.00
2023-05-19T00:49:30.796Z,0.00
2023-05-19T00:50:31.155Z,0.00
2023-05-19T00:51:30.771Z,0.00
2023-05-19T00:52:30.743Z,0.00
2023-05-19T00:53:30.731Z,0.00
2023-05-19T00:54:30.761Z,0.00
2023-05-19T00:55:30.678Z,0.00
2023-05-19T00:56:30.724Z,0.00
2023-05-19T00:57:30.711Z,0.00
2023-05-19T00:58:30.739Z,0.00
2023-05-19T00:59:30.697Z,0.00
2023-05-19T01:00:30.935Z,0.00
2023-05-19T01:01:30.664Z,0.00
2023-05-19T01:02:30.798Z,0.00
2023-05-19T01:03:30.778Z,0.00
2023-05-19T01:04:30.616Z,0.00
2023-05-19T01:05:30.629Z,0.00
2023-05-19T01:06:30.579Z,0.00
2023-05-19T01:07:30.564Z,0.00
2023-05-19T01:08:30.542Z,0.00
2023-05-19T01:09:30.550Z,0.00
2023-05-19T01:10:30.648Z,0.00
2023-05-19T01:11:30.524Z,0.00
2023-05-19T01:12:30.529Z,0.00
2023-05-19T01:13:30.519Z,0.00
2023-05-19T01:14:30.481Z,0.00
2023-05-19T01:15:30.473Z,0.00
2023-05-19T01:16:30.517Z,0.00
2023-05-19T01:17:30.543Z,0.00
2023-05-19T01:18:30.485Z,0.00
2023-05-19T01:19:30.415Z,0.00
2023-05-19T01:20:30.613Z,0.00
2023-05-19T01:21:30.406Z,0.00
2023-05-19T01:22:30.445Z,0.00
2023-05-19T01:23:30.361Z,0.00
2023-05-19T01:24:30.375Z,0.00
2023-05-19T01:25:30.357Z,0.00
2023-05-19T01:26:30.350Z,0.00
2023-05-19T01:27:30.342Z,0.00
2023-05-19T01:28:30.315Z,0.00
2023-05-19T01:29:30.308Z,0.00
2023-05-19T01:30:30.539Z,0.00
2023-05-19T01:31:30.333Z,0.00
2023-05-19T01:32:30.373Z,0.00
2023-05-19T01:33:30.278Z,0.00
2023-05-19T01:34:30.239Z,0.00
2023-05-19T01:35:30.265Z,0.00
2023-05-19T01:36:30.211Z,0.00
2023-05-19T01:37:30.205Z,0.00
2023-05-19T01:38:30.233Z,0.00
2023-05-19T01:39:30.200Z,0.00
2023-05-19T01:40:30.493Z,0.00
2023-05-19T01:41:30.163Z,0.00
2023-05-19T01:42:30.158Z,0.00
2023-05-19T01:43:30.155Z,0.00
2023-05-19T01:44:30.175Z,0.00
2023-05-19T01:45:30.113Z,0.00
2023-05-19T01:46:30.236Z,0.00
2023-05-19T01:47:30.104Z,0.00
2023-05-19T01:48:30.088Z,0.00
2023-05-19T01:49:30.092Z,0.00
2023-05-19T01:50:30.326Z,0.00
2023-05-19T01:51:30.078Z,0.00
2023-05-19T01:52:30.049Z,0.00
2023-05-19T01:53:30.021Z,0.00
2023-05-19T01:54:30.034Z,0.00
2023-05-19T01:55:30.051Z,0.00
2023-05-19T01:56:30.037Z,0.00
2023-05-19T01:57:30.004Z,0.00
2023-05-19T01:58:29.980Z,0.00
2023-05-19T01:59:29.960Z,0.00
2023-05-19T02:00:30.046Z,0.00
2023-05-19T02:01:30.013Z,0.00
2023-05-19T02:02:29.949Z,0.00
2023-05-19T02:03:29.944Z,0.00
2023-05-19T02:04:29.970Z,0.00
2023-05-19T02:05:29.897Z,0.00
2023-05-19T02:06:29.932Z,0.00
2023-05-19T02:07:29.876Z,0.00
2023-05-19T02:08:29.865Z,0.00
2023-05-19T02:09:29.856Z,0.00
2023-05-19T02:10:29.966Z,0.00
2023-05-19T02:11:29.856Z,0.00
2023-05-19T02:12:29.848Z,0.00
2023-05-19T02:13:29.841Z,0.00
2023-05-19T02:14:29.801Z,0.00
2023-05-19T02:15:29.808Z,0.00
2023-05-19T02:16:29.860Z,0.00
2023-05-19T02:17:29.813Z,0.00
2023-05-19T02:18:29.739Z,0.00
2023-05-19T02:19:29.835Z,0.00
2023-05-19T02:20:29.823Z,0.00
2023-05-19T02:21:29.716Z,0.00
2023-05-19T02:22:29.684Z,0.00
2023-05-19T02:23:29.688Z,0.00
2023-05-19T02:24:29.677Z,0.00
2023-05-19T02:25:29.693Z,0.00
2023-05-19T02:26:29.664Z,0.00
2023-05-19T02:27:29.638Z,0.00
2023-05-19T02:28:29.628Z,0.00
2023-05-19T02:29:29.626Z,0.00
2023-05-19T02:30:29.835Z,0.00
2023-05-19T02:31:29.634Z,0.00
2023-05-19T02:32:29.629Z,0.00
2023-05-19T02:33:29.571Z,0.00
2023-05-19T02:34:29.584Z,0.00
2023-05-19T02:35:29.540Z,0.00
2023-05-19T02:36:29.545Z,0.00
2023-05-19T02:37:29.577Z,0.00
2023-05-19T02:38:29.523Z,0.00
2023-05-19T02:39:29.523Z,0.00
2023-05-19T02:40:29.586Z,0.00
2023-05-19T02:41:29.530Z,0.00
2023-05-19T02:42:29.474Z,0.00
2023-05-19T02:43:29.434Z,4.00
2023-05-19T02:44:29.443Z,4.00
2023-05-19T02:45:29.443Z,4.00
2023-05-19T02:46:29.485Z,0.00
2023-05-19T02:47:29.434Z,4.00
2023-05-19T02:48:29.380Z,4.00
2023-05-19T02:49:29.386Z,4.00
2023-05-19T02:50:29.455Z,4.00
2023-05-19T02:51:29.360Z,4.00
2023-05-19T02:52:29.401Z,8.00
2023-05-19T02:53:29.319Z,8.00
2023-05-19T02:54:29.323Z,8.00
2023-05-19T02:55:29.298Z,12.00
2023-05-19T02:56:29.320Z,12.00
2023-05-19T02:57:29.310Z,12.00
2023-05-19T02:58:29.291Z,16.00
2023-05-19T02:59:29.302Z,16.00
2023-05-19T03:00:29.319Z,20.00
2023-05-19T03:01:29.314Z,24.00
2023-05-19T03:02:29.311Z,24.00
2023-05-19T03:03:29.316Z,32.00
2023-05-19T03:04:29.238Z,32.00
2023-05-19T03:05:29.220Z,36.00
2023-05-19T03:06:29.199Z,44.00
2023-05-19T03:07:29.169Z,48.00
2023-05-19T03:08:29.151Z,56.00
2023-05-19T03:09:29.186Z,60.00
2023-05-19T03:10:29.177Z,68.00
2023-05-19T03:11:29.172Z,72.00
2023-05-19T03:12:29.153Z,80.00
2023-05-19T03:13:29.119Z,92.00
2023-05-19T03:14:29.118Z,104.00
2023-05-19T03:15:29.080Z,112.00
2023-05-19T03:16:29.108Z,124.00
2023-05-19T03:17:29.127Z,136.00
2023-05-19T03:18:29.090Z,152.00
2023-05-19T03:19:29.047Z,164.00
2023-05-19T03:20:29.022Z,176.00
2023-05-19T03:21:29.025Z,196.00
2023-05-19T03:22:29.008Z,216.00
2023-05-19T03:23:28.984Z,236.00
2023-05-19T03:24:28.984Z,256.00
2023-05-19T03:25:28.980Z,284.00
2023-05-19T03:26:28.994Z,304.00
2023-05-19T03:27:29.007Z,328.00
2023-05-19T03:28:28.958Z,356.00
2023-05-19T03:29:28.965Z,384.00
2023-05-19T03:30:28.931Z,408.00
2023-05-19T03:31:28.896Z,444.00
2023-05-19T03:32:28.967Z,476.00
2023-05-19T03:33:29.006Z,508.00
2023-05-19T03:34:28.897Z,544.00
2023-05-19T03:35:28.878Z,580.00
2023-05-19T03:36:28.870Z,612.00
2023-05-19T03:37:28.853Z,640.00
2023-05-19T03:38:28.814Z,672.00
2023-05-19T03:39:28.817Z,700.00
2023-05-19T03:40:28.809Z,728.00
2023-05-19T03:41:28.806Z,764.00
2023-05-19T03:42:28.791Z,800.00
2023-05-19T03:43:28.769Z,840.00
2023-05-19T03:44:28.775Z,872.00
2023-05-19T03:45:28.753Z,912.00
2023-05-19T03:46:28.833Z,948.00
2023-05-19T03:47:28.765Z,984.00
2023-05-19T03:48:28.777Z,1020.00
2023-05-19T03:49:28.693Z,1064.00
2023-05-19T03:50:28.685Z,1116.00
2023-05-19T03:51:28.705Z,1168.00
2023-05-19T03:52:28.658Z,1232.00
2023-05-19T03:53:28.666Z,1296.00
2023-05-19T03:54:28.712Z,1344.00
2023-05-19T03:55:28.645Z,1392.00
2023-05-19T03:56:28.598Z,1448.00
2023-05-19T03:57:28.625Z,1512.00
2023-05-19T03:58:28.609Z,1556.00
2023-05-19T03:59:28.608Z,1588.00
2023-05-19T04:00:28.595Z,1608.00
2023-05-19T04:01:28.559Z,1648.00
2023-05-19T04:02:28.701Z,1704.00
2023-05-19T04:03:28.608Z,1756.00
2023-05-19T04:04:28.624Z,1804.00
2023-05-19T04:05:28.523Z,1856.00
2023-05-19T04:06:28.502Z,1904.00
2023-05-19T04:07:28.539Z,1940.00
2023-05-19T04:08:28.488Z,1980.00
2023-05-19T04:09:28.488Z,2024.00
2023-05-19T04:10:28.454Z,2064.00
2023-05-19T04:11:28.447Z,2112.00
2023-05-19T04:12:28.459Z,2164.00
2023-05-19T04:13:28.443Z,2224.00
2023-05-19T04:14:28.428Z,2292.00
2023-05-19T04:15:28.470Z,2364.00
2023-05-19T04:16:28.495Z,2452.00
2023-05-19T04:17:28.412Z,2532.00
2023-05-19T04:18:29.261Z,2584.00
2023-05-19T04:19:28.451Z,2620.00
2023-05-19T04:20:28.358Z,2644.00
2023-05-19T04:21:28.338Z,2664.00
2023-05-19T04:22:28.323Z,2676.00
2023-05-19T04:23:28.298Z,2668.00
2023-05-19T04:24:28.311Z,2660.00
2023-05-19T04:25:28.365Z,2644.00
2023-05-19T04:26:28.298Z,2628.00
2023-05-19T04:27:28.268Z,2600.00
2023-05-19T04:28:28.250Z,2572.00
2023-05-19T04:29:28.253Z,2556.00
2023-05-19T04:30:28.222Z,2556.00
2023-05-19T04:31:28.283Z,2564.00
2023-05-19T04:32:28.254Z,2572.00
2023-05-19T04:33:28.207Z,2584.00
2023-05-19T04:34:28.205Z,2584.00
2023-05-19T04:35:28.162Z,2596.00
2023-05-19T04:36:28.164Z,2612.00
2023-05-19T04:37:28.129Z,2652.00
2023-05-19T04:38:28.170Z,2700.00
2023-05-19T04:39:28.140Z,2752.00
2023-05-19T04:40:28.095Z,2804.00
2023-05-19T04:41:28.083Z,2852.00
2023-05-19T04:42:28.067Z,2916.00
2023-05-19T04:43:28.117Z,2980.00
2023-05-19T04:44:28.071Z,3024.00
2023-05-19T04:45:28.062Z,3064.00
2023-05-19T04:46:28.041Z,3084.00
2023-05-19T04:47:28.334Z,3108.00
2023-05-19T04:48:27.999Z,3124.00
2023-05-19T04:49:28.010Z,3120.00
2023-05-19T04:50:28.040Z,3120.00
2023-05-19T04:51:29.745Z,3132.00
2023-05-19T04:52:27.984Z,3140.00
2023-05-19T04:53:27.980Z,3164.00
2023-05-19T04:54:27.943Z,3208.00
2023-05-19T04:55:27.929Z,3276.00
2023-05-19T04:56:27.954Z,3340.00
2023-05-19T04:57:27.899Z,3400.00
2023-05-19T04:58:27.920Z,3468.00
2023-05-19T04:59:27.883Z,3540.00
2023-05-19T05:00:27.907Z,3604.00
2023-05-19T05:01:28.042Z,3648.00
2023-05-19T05:02:27.880Z,3672.00
2023-05-19T05:03:27.897Z,3696.00
2023-05-19T05:04:27.812Z,3716.00
2023-05-19T05:05:27.850Z,3736.00
2023-05-19T05:06:27.829Z,3772.00
2023-05-19T05:07:28.558Z,3824.00
2023-05-19T05:08:27.790Z,3876.00
2023-05-19T05:09:27.793Z,3936.00
2023-05-19T05:10:27.739Z,4004.00
2023-05-19T05:11:27.729Z,4068.00
2023-05-19T05:12:27.776Z,4128.00
2023-05-19T05:13:27.726Z,4192.00
2023-05-19T05:14:27.741Z,4268.00
2023-05-19T05:15:27.676Z,4348.00
2023-05-19T05:16:27.740Z,4436.00
2023-05-19T05:17:27.765Z,4516.00
2023-05-19T05:18:27.720Z,4592.00
2023-05-19T05:19:27.667Z,4668.00
2023-05-19T05:20:27.632Z,4732.00
2023-05-19T05:21:27.624Z,4788.00
2023-05-19T05:22:27.603Z,4868.00
2023-05-19T05:23:27.647Z,4940.00
2023-05-19T05:24:27.579Z,5028.00
2023-05-19T05:25:27.638Z,5104.00
2023-05-19T05:26:27.559Z,5184.00
2023-05-19T05:27:27.565Z,5296.00
2023-05-19T05:28:27.528Z,5416.00
2023-05-19T05:29:27.552Z,5540.00
2023-05-19T05:30:27.514Z,5648.00
2023-05-19T05:31:27.534Z,5744.00
2023-05-19T05:32:27.556Z,5856.00
2023-05-19T05:33:27.691Z,6012.00
2023-05-19T05:34:27.502Z,6184.00
2023-05-19T05:35:27.446Z,6432.00
2023-05-19T05:36:27.493Z,6748.00
2023-05-19T05:37:27.433Z,7024.00
2023-05-19T05:38:27.448Z,7364.00
2023-05-19T05:39:27.409Z,7688.00
2023-05-19T05:40:27.403Z,8032.00
2023-05-19T05:41:27.409Z,8360.00
2023-05-19T05:42:29.635Z,8684.00
2023-05-19T05:43:27.367Z,8880.00
2023-05-19T05:44:27.365Z,9040.00
2023-05-19T05:45:27.365Z,9184.00
2023-05-19T05:46:27.456Z,9364.00
2023-05-19T05:47:27.331Z,9536.00
2023-05-19T05:48:27.324Z,9644.00
2023-05-19T05:49:27.280Z,9816.00
2023-05-19T05:50:27.290Z,9984.00
2023-05-19T05:51:27.287Z,10276.00
2023-05-19T05:52:27.268Z,10768.00
2023-05-19T05:53:27.270Z,11112.00
2023-05-19T05:54:27.250Z,11620.00
2023-05-19T05:55:27.223Z,12128.00
2023-05-19T05:56:27.209Z,12572.00
2023-05-19T05:57:27.204Z,12916.00
2023-05-19T05:58:27.211Z,13132.00
2023-05-19T05:59:27.223Z,13188.00
2023-05-19T06:00:27.169Z,13244.00
2023-05-19T06:01:27.161Z,13492.00
2023-05-19T06:02:27.245Z,14040.00
2023-05-19T06:03:27.305Z,14512.00
2023-05-19T06:04:27.173Z,14980.00
2023-05-19T06:05:27.169Z,15116.00
2023-05-19T06:06:27.127Z,15244.00
2023-05-19T06:07:27.111Z,15456.00
2023-05-19T06:08:27.091Z,15872.00
2023-05-19T06:09:27.052Z,15808.00
2023-05-19T06:10:27.099Z,15840.00
2023-05-19T06:11:27.044Z,16160.00
2023-05-19T06:12:27.076Z,16832.00
2023-05-19T06:13:27.016Z,20736.00
2023-05-19T06:14:26.990Z,17664.00
2023-05-19T06:15:27.052Z,17056.00
2023-05-19T06:16:27.028Z,17152.00
2023-05-19T06:17:27.042Z,17376.00
2023-05-19T06:18:26.978Z,17600.00
2023-05-19T06:19:27.007Z,17984.00
2023-05-19T06:20:26.930Z,18368.00
2023-05-19T06:21:26.969Z,18400.00
2023-05-19T06:22:26.901Z,18624.00
2023-05-19T06:23:26.894Z,19232.00
2023-05-19T06:24:26.925Z,19936.00
2023-05-19T06:25:26.904Z,20352.00
2023-05-19T06:26:26.876Z,19936.00
2023-05-19T06:27:26.872Z,20576.00
2023-05-19T06:28:26.837Z,20832.00
2023-05-19T06:29:26.846Z,20224.00
2023-05-19T06:30:26.858Z,22912.00
2023-05-19T06:31:26.866Z,20352.00
2023-05-19T06:32:26.828Z,20064.00
2023-05-19T06:33:29.003Z,20032.00
2023-05-19T06:34:26.791Z,19904.00
2023-05-19T06:35:26.784Z,19968.00
2023-05-19T06:36:26.769Z,21184.00
2023-05-19T06:37:26.770Z,38848.00
2023-05-19T06:38:26.732Z,32128.00
2023-05-19T06:39:26.731Z,53728.00
2023-05-19T06:40:26.736Z,53504.00
2023-05-19T06:41:26.720Z,55264.00
2023-05-19T06:42:26.689Z,54528.00
2023-05-19T06:43:26.714Z,54496.00
2023-05-19T06:44:26.654Z,53920.00
2023-05-19T06:45:26.656Z,51808.00
2023-05-19T06:46:26.705Z,50912.00
2023-05-19T06:47:26.635Z,50144.00
2023-05-19T06:48:26.646Z,46496.00
2023-05-19T06:49:26.592Z,44224.00
2023-05-19T06:50:26.573Z,45760.00
2023-05-19T06:51:26.592Z,44736.00
2023-05-19T06:52:26.585Z,44064.00
2023-05-19T06:53:26.611Z,42112.00
2023-05-19T06:54:26.558Z,37984.00
2023-05-19T06:55:26.568Z,28736.00
2023-05-19T06:56:26.543Z,28544.00
2023-05-19T06:57:26.512Z,32640.00
2023-05-19T06:58:26.520Z,38848.00
2023-05-19T06:59:26.473Z,41408.00
2023-05-19T07:00:26.508Z,42496.00
2023-05-19T07:01:26.682Z,42112.00
2023-05-19T07:02:26.490Z,42080.00
2023-05-19T07:03:26.542Z,42144.00
2023-05-19T07:04:26.426Z,40960.00
2023-05-19T07:05:26.417Z,41696.00
2023-05-19T07:06:26.479Z,44384.00
2023-05-19T07:07:26.394Z,47328.00
2023-05-19T07:08:26.414Z,52352.00
2023-05-19T07:09:26.399Z,52800.00
2023-05-19T07:10:26.451Z,51968.00
2023-05-19T07:11:26.440Z,52608.00
2023-05-19T07:12:26.358Z,51744.00
2023-05-19T07:13:27.462Z,52256.00
2023-05-19T07:14:26.349Z,52576.00
2023-05-19T07:15:26.301Z,51808.00
2023-05-19T07:16:26.331Z,53280.00
2023-05-19T07:17:26.390Z,52768.00
2023-05-19T07:18:26.285Z,50048.00
2023-05-19T07:19:26.377Z,48096.00
2023-05-19T07:20:26.335Z,46496.00
2023-05-19T07:21:26.237Z,43520.00
2023-05-19T07:22:26.288Z,38496.00
2023-05-19T07:23:26.220Z,39072.00
2023-05-19T07:24:26.241Z,36000.00
2023-05-19T07:25:26.211Z,40928.00
2023-05-19T07:26:26.179Z,41696.00
2023-05-19T07:27:26.189Z,40928.00
2023-05-19T07:28:26.184Z,39904.00
2023-05-19T07:29:26.179Z,37408.00
2023-05-19T07:30:26.200Z,44416.00
2023-05-19T07:31:26.233Z,43040.00
2023-05-19T07:32:26.196Z,45344.00
2023-05-19T07:33:26.107Z,32992.00
2023-05-19T07:34:26.100Z,43584.00
2023-05-19T07:35:26.093Z,40992.00
2023-05-19T07:36:26.085Z,39712.00
2023-05-19T07:37:26.061Z,38144.00
2023-05-19T07:38:26.056Z,37696.00
2023-05-19T07:39:26.088Z,46208.00
2023-05-19T07:40:26.056Z,50176.00
2023-05-19T07:41:26.090Z,49344.00
2023-05-19T07:42:26.030Z,42144.00
2023-05-19T07:43:25.995Z,51392.00
2023-05-19T07:44:26.008Z,53568.00
2023-05-19T07:45:25.977Z,49440.00
2023-05-19T07:46:26.161Z,47296.00
2023-05-19T07:47:26.067Z,48576.00
2023-05-19T07:48:25.985Z,47840.00
2023-05-19T07:49:25.917Z,51296.00
2023-05-19T07:50:25.939Z,53472.00
2023-05-19T07:51:25.896Z,55072.00
2023-05-19T07:52:25.898Z,51136.00
2023-05-19T07:53:25.902Z,47712.00
2023-05-19T07:54:25.909Z,51072.00
2023-05-19T07:55:25.865Z,52128.00
2023-05-19T07:56:25.864Z,48000.00
2023-05-19T07:57:25.889Z,47968.00
2023-05-19T07:58:25.853Z,43520.00
2023-05-19T07:59:25.811Z,46720.00
2023-05-19T08:00:25.806Z,46272.00
2023-05-19T08:01:25.814Z,46208.00
2023-05-19T08:02:25.923Z,43104.00
2023-05-19T08:03:25.953Z,45760.00
2023-05-19T08:04:25.814Z,48160.00
2023-05-19T08:05:25.781Z,46144.00
2023-05-19T08:06:25.765Z,43840.00
2023-05-19T08:07:25.747Z,41632.00
2023-05-19T08:08:25.751Z,55904.00
2023-05-19T08:09:25.729Z,57600.00
2023-05-19T08:10:25.723Z,52704.00
2023-05-19T08:11:25.702Z,46176.00
2023-05-19T08:12:25.676Z,32096.00
2023-05-19T08:13:25.666Z,25824.00
2023-05-19T08:14:25.677Z,15256.00
2023-05-19T08:15:25.744Z,31776.00
2023-05-19T08:16:25.730Z,14784.00
2023-05-19T08:17:25.667Z,16320.00
2023-05-19T08:18:25.614Z,19200.00
2023-05-19T08:19:25.641Z,26464.00
2023-05-19T08:20:25.621Z,32480.00
2023-05-19T08:21:25.603Z,36928.00
2023-05-19T08:22:25.557Z,38688.00
2023-05-19T08:23:25.545Z,38592.00
2023-05-19T08:24:25.550Z,27360.00
2023-05-19T08:25:25.591Z,45760.00
2023-05-19T08:26:25.540Z,42368.00
2023-05-19T08:27:25.520Z,44352.00
2023-05-19T08:28:25.502Z,55744.00
2023-05-19T08:29:25.516Z,43584.00
2023-05-19T08:30:25.478Z,63808.00
2023-05-19T08:31:25.538Z,55904.00
2023-05-19T08:32:25.555Z,38112.00
2023-05-19T08:33:25.465Z,31040.00
2023-05-19T08:34:25.438Z,27072.00
2023-05-19T08:35:25.444Z,31520.00
2023-05-19T08:36:25.420Z,33120.00
2023-05-19T08:37:25.428Z,40928.00
2023-05-19T08:38:25.417Z,35200.00
2023-05-19T08:39:25.383Z,23744.00
2023-05-19T08:40:25.369Z,23392.00
2023-05-19T08:41:25.382Z,23456.00
2023-05-19T08:42:25.337Z,25888.00
2023-05-19T08:43:25.368Z,25440.00
2023-05-19T08:44:25.329Z,28480.00
2023-05-19T08:45:25.337Z,35680.00
2023-05-19T08:46:25.394Z,33824.00
2023-05-19T08:47:25.346Z,38464.00
2023-05-19T08:48:25.286Z,33664.00
2023-05-19T08:49:25.776Z,43008.00
2023-05-19T08:50:25.299Z,41920.00
2023-05-19T08:51:25.299Z,41344.00
2023-05-19T08:52:25.256Z,45344.00
2023-05-19T08:54:26.218Z,46336.00
2023-05-19T08:55:25.190Z,44768.00
2023-05-19T08:56:25.242Z,45888.00
2023-05-19T08:57:25.189Z,28448.00
2023-05-19T08:58:26.701Z,27744.00
2023-05-19T08:59:25.146Z,29440.00
2023-05-19T09:00:25.150Z,46016.00
2023-05-19T09:01:25.256Z,50624.00
2023-05-19T09:02:25.175Z,32448.00
2023-05-19T09:03:25.167Z,61408.00
2023-05-19T09:04:26.019Z,64000.00
2023-05-19T09:05:25.107Z,69920.00
2023-05-19T09:06:25.076Z,66752.00
2023-05-19T09:07:25.088Z,73440.00
2023-05-19T09:08:25.089Z,82624.00
2023-05-19T09:09:25.056Z,85088.00
2023-05-19T09:10:26.055Z,89376.00
2023-05-19T09:11:25.041Z,86688.00
2023-05-19T09:12:25.024Z,81504.00
2023-05-19T09:13:25.047Z,78080.00
2023-05-19T09:14:25.020Z,77632.00
2023-05-19T09:15:25.009Z,77696.00
2023-05-19T09:16:27.637Z,79424.00
2023-05-19T09:17:24.976Z,83072.00
2023-05-19T09:18:24.958Z,85216.00
2023-05-19T09:19:25.049Z,93696.00
2023-05-19T09:20:24.931Z,93536.00
2023-05-19T09:21:24.909Z,94432.00
2023-05-19T09:22:24.893Z,92064.00
2023-05-19T09:23:24.910Z,90336.00
2023-05-19T09:24:24.891Z,89184.00
2023-05-19T09:25:24.880Z,89408.00
2023-05-19T09:26:24.901Z,92192.00
2023-05-19T09:27:24.837Z,96000.00
2023-05-19T09:28:24.890Z,88032.00
2023-05-19T09:29:24.814Z,89696.00
2023-05-19T09:30:24.810Z,90112.00
2023-05-19T09:31:24.814Z,91072.00
2023-05-19T09:32:25.011Z,91200.00
2023-05-19T09:33:24.826Z,67232.00
2023-05-19T09:34:24.787Z,64224.00
2023-05-19T09:35:24.779Z,76768.00
2023-05-19T09:36:24.783Z,51296.00
2023-05-19T09:37:24.769Z,33600.00
2023-05-19T09:38:24.763Z,41440.00
2023-05-19T09:39:24.720Z,68704.00
2023-05-19T09:40:24.723Z,43168.00
2023-05-19T09:41:24.705Z,45696.00
2023-05-19T09:42:24.757Z,39232.00
2023-05-19T09:43:24.681Z,51936.00
2023-05-19T09:44:24.692Z,53312.00
2023-05-19T09:45:24.662Z,73312.00
2023-05-19T09:46:24.701Z,65024.00
2023-05-19T09:47:24.698Z,74720.00
2023-05-19T09:48:24.631Z,77888.00
2023-05-19T09:49:24.622Z,85088.00
2023-05-19T09:50:24.605Z,76832.00
2023-05-19T09:51:24.619Z,51680.00
2023-05-19T09:52:24.628Z,73344.00
2023-05-19T09:53:24.595Z,63392.00
2023-05-19T09:54:24.584Z,56960.00
2023-05-19T09:55:24.576Z,63200.00
2023-05-19T09:56:24.541Z,69824.00
2023-05-19T09:57:24.558Z,101376.00
2023-05-19T09:58:24.542Z,96640.00
2023-05-19T09:59:24.555Z,64832.00
2023-05-19T10:00:24.495Z,93696.00
2023-05-19T10:01:24.518Z,74976.00
2023-05-19T10:02:24.492Z,48992.00
2023-05-19T10:03:24.477Z,51040.00
2023-05-19T10:04:24.470Z,44640.00
2023-05-19T10:05:24.502Z,47808.00
2023-05-19T10:06:24.441Z,47680.00
2023-05-19T10:07:24.433Z,46432.00
2023-05-19T10:08:24.462Z,42464.00
2023-05-19T10:09:24.417Z,47584.00
2023-05-19T10:10:24.412Z,48672.00
2023-05-19T10:11:24.393Z,43808.00
2023-05-19T10:12:24.414Z,43904.00
2023-05-19T10:13:24.356Z,46400.00
2023-05-19T10:14:24.404Z,52544.00
2023-05-19T10:15:24.347Z,55872.00
2023-05-19T10:16:24.358Z,57536.00
2023-05-19T10:17:24.477Z,51488.00
2023-05-19T10:18:24.332Z,52416.00
2023-05-19T10:19:24.368Z,53952.00
2023-05-19T10:20:24.296Z,59168.00
2023-05-19T10:21:24.290Z,55328.00
2023-05-19T10:22:24.253Z,51424.00
2023-05-19T10:23:24.267Z,47936.00
2023-05-19T10:24:24.258Z,44128.00
2023-05-19T10:25:24.252Z,52544.00
2023-05-19T10:26:24.216Z,54208.00
2023-05-19T10:27:24.200Z,49760.00
2023-05-19T10:28:24.228Z,45344.00
2023-05-19T10:29:24.173Z,46592.00
2023-05-19T10:30:24.201Z,45664.00
2023-05-19T10:31:24.170Z,44640.00
2023-05-19T10:32:24.192Z,50240.00
2023-05-19T10:33:24.160Z,64128.00
2023-05-19T10:34:24.179Z,67648.00
2023-05-19T10:35:24.139Z,72352.00
2023-05-19T10:36:24.102Z,82144.00
2023-05-19T10:37:24.102Z,79456.00
2023-05-19T10:38:24.127Z,66848.00
2023-05-19T10:39:24.108Z,75488.00
2023-05-19T10:40:24.128Z,78592.00
2023-05-19T10:41:24.065Z,66976.00
2023-05-19T10:42:24.053Z,77440.00
2023-05-19T10:43:24.048Z,65888.00
2023-05-19T10:44:24.014Z,66656.00
2023-05-19T10:45:24.024Z,63904.00
2023-05-19T10:46:24.027Z,48000.00
2023-05-19T10:47:24.020Z,73152.00
2023-05-19T10:48:24.014Z,48704.00
2023-05-19T10:49:23.983Z,38048.00
2023-05-19T10:50:23.974Z,58272.00
2023-05-19T10:51:23.950Z,59904.00
2023-05-19T10:52:24.005Z,48992.00
2023-05-19T10:53:23.949Z,50784.00
2023-05-19T10:54:23.912Z,73792.00
2023-05-19T10:55:23.922Z,46528.00
2023-05-19T10:56:23.886Z,63488.00
2023-05-19T10:57:23.920Z,42304.00
2023-05-19T10:58:23.910Z,55360.00
2023-05-19T10:59:23.865Z,78560.00
2023-05-19T11:00:23.860Z,51968.00
2023-05-19T11:01:23.888Z,61088.00
2023-05-19T11:02:23.918Z,70240.00
2023-05-19T11:03:24.551Z,44672.00
2023-05-19T11:04:23.847Z,111552.00
2023-05-19T11:05:23.801Z,54304.00
2023-05-19T11:06:23.801Z,75808.00
2023-05-19T11:07:23.788Z,87008.00
2023-05-19T11:08:23.824Z,79232.00
2023-05-19T11:09:34.160Z,93952.00
2023-05-19T11:10:24.742Z,86976.00
2023-05-19T11:11:23.772Z,79488.00
2023-05-19T11:12:24.744Z,75776.00
2023-05-19T11:13:23.719Z,56032.00
2023-05-19T11:14:23.704Z,64320.00
2023-05-19T11:15:23.682Z,43840.00
2023-05-19T11:16:23.770Z,69280.00
2023-05-19T11:17:23.810Z,38720.00
2023-05-19T11:18:23.761Z,46816.00
2023-05-19T11:19:23.783Z,58720.00
2023-05-19T11:20:23.640Z,60064.00
2023-05-19T11:21:23.702Z,87552.00
2023-05-19T11:22:23.629Z,41088.00
2023-05-19T11:23:23.609Z,64032.00
2023-05-19T11:24:23.633Z,42912.00
2023-05-19T11:25:23.589Z,37312.00
2023-05-19T11:26:23.581Z,37120.00
2023-05-19T11:27:23.622Z,25056.00
2023-05-19T11:28:23.554Z,29728.00
2023-05-19T11:29:23.549Z,20864.00
2023-05-19T11:30:23.553Z,21120.00
2023-05-19T11:31:23.583Z,21920.00
2023-05-19T11:32:23.564Z,23328.00
2023-05-19T11:33:23.519Z,22528.00
2023-05-19T11:34:23.483Z,28448.00
2023-05-19T11:35:23.476Z,24192.00
2023-05-19T11:36:23.484Z,40768.00
2023-05-19T11:37:23.467Z,38688.00
2023-05-19T11:38:23.505Z,50240.00
2023-05-19T11:39:23.428Z,53792.00
2023-05-19T11:40:23.452Z,41344.00
2023-05-19T11:41:23.433Z,43008.00
2023-05-19T11:42:23.413Z,42208.00
2023-05-19T11:43:23.427Z,41792.00
2023-05-19T11:44:23.409Z,48928.00
2023-05-19T11:45:23.372Z,45216.00
2023-05-19T11:46:23.422Z,51488.00
2023-05-19T11:47:23.388Z,52640.00
2023-05-19T11:48:23.380Z,52800.00
2023-05-19T11:49:23.335Z,52736.00
2023-05-19T11:50:23.319Z,52448.00
2023-05-19T11:51:23.312Z,51040.00
2023-05-19T11:52:23.327Z,37408.00
2023-05-19T11:53:23.298Z,24736.00
2023-05-19T11:54:23.302Z,22080.00
2023-05-19T11:55:23.297Z,21376.00
2023-05-19T11:56:23.290Z,21088.00
2023-05-19T11:57:23.283Z,20832.00
2023-05-19T11:58:23.211Z,20512.00
2023-05-19T11:59:23.236Z,20224.00
2023-05-19T12:00:23.189Z,20064.00
2023-05-19T12:01:23.242Z,20128.00
2023-05-19T12:02:23.206Z,20416.00
2023-05-19T12:03:23.255Z,20672.00
2023-05-19T12:04:23.163Z,20704.00
2023-05-19T12:05:23.279Z,20352.00
2023-05-19T12:06:23.230Z,19936.00
2023-05-19T12:07:23.113Z,19072.00
2023-05-19T12:08:23.114Z,18368.00
2023-05-19T12:09:23.135Z,18016.00
2023-05-19T12:10:23.085Z,17696.00
2023-05-19T12:11:23.176Z,17440.00
2023-05-19T12:12:23.088Z,17248.00
2023-05-19T12:13:23.057Z,17056.00